Time;durP1;ratioP1;P1;durP2;ratioP2;P2;SDS_P1;SDS_P2;PMS_P1;PMS_P2;Temp;Humidity;BMP_temperature;BMP_pressure;BME280_temperature;BME280_humidity;BME280_pressure;Samples;Min_cycle;Max_cycle;Signal;HPM_P1;HPM_P2
2023/09/22 00:00:10;;;;;;;1.70;1.40;;;;;;;14.88;100.00;99036.06;4984240;28;20524;-75
2023/09/22 00:02:38;;;;;;;3.40;1.37;;;;;;;14.84;100.00;99031.72;4984558;28;20224;-75
2023/09/22 00:05:07;;;;;;;2.93;1.60;;;;;;;14.80;100.00;99016.69;4978085;28;20205;-75
2023/09/22 00:07:33;;;;;;;3.60;1.50;;;;;;;14.88;100.00;99009.41;4991447;28;20673;-74
2023/09/22 00:10:00;;;;;;;1.90;1.50;;;;;;;14.84;100.00;99010.41;4986398;28;20291;-75
2023/09/22 00:12:29;;;;;;;1.77;1.60;;;;;;;14.76;100.00;99025.69;4985726;28;20213;-75
2023/09/22 00:14:57;;;;;;;1.73;1.23;;;;;;;14.72;100.00;99032.03;4982559;28;20206;-75
2023/09/22 00:17:24;;;;;;;3.43;1.70;;;;;;;14.66;100.00;99017.06;4984531;28;20225;-75
2023/09/22 00:19:51;;;;;;;3.87;1.50;;;;;;;14.59;100.00;99017.25;4995366;28;20205;-74
2023/09/22 00:22:17;;;;;;;1.90;1.20;;;;;;;14.52;100.00;99021.00;4980612;28;20673;-76
2023/09/22 00:24:44;;;;;;;2.50;1.60;;;;;;;14.41;100.00;99038.09;4973874;28;20202;-75
2023/09/22 00:27:11;;;;;;;1.77;1.50;;;;;;;14.36;100.00;99033.75;4980503;28;20240;-74
2023/09/22 00:29:37;;;;;;;2.20;1.43;;;;;;;14.24;100.00;99050.91;4984110;28;20296;-76
2023/09/22 00:32:03;;;;;;;1.80;1.50;;;;;;;14.20;100.00;99053.69;4981286;28;20220;-75
2023/09/22 00:34:32;;;;;;;2.73;1.60;;;;;;;14.09;100.00;99056.59;4985161;28;20305;-75
2023/09/22 00:37:00;;;;;;;3.03;1.80;;;;;;;14.17;100.00;99067.06;4980589;28;20231;-74
2023/09/22 00:39:28;;;;;;;3.03;2.00;;;;;;;14.11;100.00;99070.75;4980533;28;20207;-76
2023/09/22 00:41:55;;;;;;;2.10;1.77;;;;;;;14.15;100.00;99076.88;4986414;28;20696;-75
2023/09/22 00:44:21;;;;;;;3.30;2.00;;;;;;;14.06;100.00;99065.53;4971348;28;20307;-74
2023/09/22 00:46:47;;;;;;;1.90;1.60;;;;;;;14.07;100.00;99061.06;4982757;28;20576;-74
2023/09/22 00:49:14;;;;;;;2.07;1.70;;;;;;;13.98;100.00;99048.81;4982670;28;20209;-75
2023/09/22 00:51:40;;;;;;;1.87;1.67;;;;;;;13.99;100.00;99047.91;4985073;28;20583;-76
2023/09/22 00:54:07;;;;;;;3.73;1.70;;;;;;;13.97;100.00;99043.53;4984765;28;20211;-75
2023/09/22 00:56:34;;;;;;;2.73;1.70;;;;;;;13.96;100.00;99039.13;4982320;28;20227;-76
2023/09/22 00:59:00;;;;;;;2.40;1.60;;;;;;;13.90;100.00;99042.78;4981143;28;20201;-76
2023/09/22 01:01:26;;;;;;;2.40;1.63;;;;;;;13.92;100.00;99051.63;4975704;28;20212;-76
2023/09/22 01:03:53;;;;;;;2.67;1.70;;;;;;;13.86;100.00;99056.19;4975772;28;20236;-75
2023/09/22 01:06:20;;;;;;;2.23;1.83;;;;;;;13.82;100.00;99071.34;4970002;28;20213;-75
2023/09/22 01:08:47;;;;;;;2.10;1.80;;;;;;;13.79;100.00;99079.41;4972905;28;20213;-76
2023/09/22 01:11:13;;;;;;;1.97;1.43;;;;;;;13.72;100.00;99081.31;4978459;28;20698;-76
2023/09/22 01:13:40;;;;;;;2.23;1.67;;;;;;;13.71;100.00;99089.34;4983057;28;20298;-75
2023/09/22 01:16:06;;;;;;;2.87;1.90;;;;;;;13.67;100.00;99074.34;4980313;28;20685;-76
2023/09/22 01:18:33;;;;;;;2.83;1.90;;;;;;;13.66;100.00;99078.78;4980210;28;20677;-74
2023/09/22 01:20:59;;;;;;;6.63;1.87;;;;;;;13.66;100.00;99080.56;4978373;28;20214;-75
2023/09/22 01:23:26;;;;;;;3.23;1.70;;;;;;;13.53;100.00;99085.22;4976757;28;20235;-76
2023/09/22 01:25:53;;;;;;;2.53;1.60;;;;;;;13.49;100.00;99078.22;4986041;28;20205;-75
2023/09/22 01:28:19;;;;;;;2.97;1.53;;;;;;;13.51;100.00;99081.72;4981646;28;20241;-74
2023/09/22 01:30:45;;;;;;;1.97;1.63;;;;;;;13.54;100.00;99092.31;4979574;28;20212;-77
2023/09/22 01:33:12;;;;;;;2.93;1.80;;;;;;;13.52;100.00;99078.16;4979996;28;20890;-74
2023/09/22 01:35:42;;;;;;;2.10;1.60;;;;;;;13.46;100.00;99080.94;4979620;28;20201;-75
2023/09/22 01:38:10;;;;;;;3.17;1.60;;;;;;;13.51;100.00;99081.72;4976830;28;20788;-75
2023/09/22 01:40:37;;;;;;;3.70;1.37;;;;;;;13.48;100.00;99069.38;4974777;28;20208;-76
2023/09/22 01:43:04;;;;;;;2.63;1.30;;;;;;;13.51;100.00;99062.25;4975624;28;20657;-75
2023/09/22 01:45:30;;;;;;;2.03;1.43;;;;;;;13.40;100.00;99073.09;4976829;28;20248;-76
2023/09/22 01:47:57;;;;;;;1.93;1.40;;;;;;;13.29;100.00;99070.63;4976466;28;20209;-77
2023/09/22 01:50:23;;;;;;;1.90;1.40;;;;;;;13.32;100.00;99086.53;4983316;28;20285;-75
2023/09/22 01:52:50;;;;;;;1.53;1.27;;;;;;;13.28;100.00;99091.94;4980824;28;20276;-75
2023/09/22 01:55:16;;;;;;;2.57;1.37;;;;;;;13.22;100.00;99089.41;4989626;28;20201;-77
2023/09/22 01:57:43;;;;;;;4.17;1.20;;;;;;;13.07;100.00;99088.72;4976212;28;20201;-77
2023/09/22 02:00:10;;;;;;;1.63;1.20;;;;;;;12.95;100.00;99090.72;4983056;28;20205;-77
2023/09/22 02:02:42;;;;;;;2.33;1.50;;;;;;;12.88;100.00;99089.06;4973270;28;20718;-77
2023/09/22 02:05:11;;;;;;;2.63;1.30;;;;;;;12.83;100.00;99092.69;4977126;28;20678;-77
2023/09/22 02:07:38;;;;;;;1.43;1.33;;;;;;;12.83;100.00;99092.69;4985065;28;20251;-77
2023/09/22 02:10:05;;;;;;;2.97;1.33;;;;;;;12.86;100.00;99102.38;4979824;28;20267;-78
2023/09/22 02:12:32;;;;;;;4.53;1.70;;;;;;;12.83;100.00;99111.28;4981563;28;20307;-77
2023/09/22 02:15:00;;;;;;;4.70;1.90;;;;;;;12.85;100.00;99112.13;4991799;28;20638;-77
2023/09/22 02:17:27;;;;;;;2.17;1.40;;;;;;;12.84;100.00;99112.16;4976545;28;20197;-78
2023/09/22 02:19:55;;;;;;;2.53;1.33;;;;;;;12.83;100.00;99131.66;4978429;28;20217;-77
2023/09/22 02:22:21;;;;;;;2.20;1.20;;;;;;;12.86;100.00;99142.25;4980670;28;20644;-78
2023/09/22 02:24:47;;;;;;;3.47;1.50;;;;;;;12.97;100.00;99128.78;4985438;28;20241;-77
2023/09/22 02:27:14;;;;;;;1.43;1.13;;;;;;;13.06;100.00;99107.34;4984877;28;21069;-78
2023/09/22 02:29:41;;;;;;;1.93;1.20;;;;;;;13.08;100.00;99094.91;4981124;28;20203;-77
2023/09/22 02:32:07;;;;;;;1.67;1.10;;;;;;;12.99;100.00;99080.00;4984538;28;20299;-76
2023/09/22 02:34:33;;;;;;;2.77;1.27;;;;;;;12.88;100.00;99086.41;4983330;28;20604;-76
2023/09/22 02:37:00;;;;;;;1.63;1.10;;;;;;;12.80;100.00;99078.53;4982086;28;20275;-76
2023/09/22 02:39:26;;;;;;;2.87;1.20;;;;;;;12.74;100.00;99076.00;4981787;28;20570;-78
2023/09/22 02:41:53;;;;;;;2.13;1.20;;;;;;;12.73;100.00;99088.41;4998537;28;20215;-77
2023/09/22 02:44:19;;;;;;;2.27;1.33;;;;;;;12.72;100.00;99089.31;4986043;28;20220;-77
2023/09/22 02:46:46;;;;;;;1.87;1.50;;;;;;;12.69;100.00;99083.16;4984976;28;20227;-76
2023/09/22 02:49:12;;;;;;;1.67;1.30;;;;;;;12.70;100.00;99083.13;4982478;28;20219;-77
2023/09/22 02:51:38;;;;;;;2.17;1.40;;;;;;;12.76;100.00;99077.72;4987847;28;20212;-76
2023/09/22 02:54:05;;;;;;;2.17;1.40;;;;;;;12.73;100.00;99087.53;4985159;28;20597;-77
2023/09/22 02:56:32;;;;;;;2.07;1.30;;;;;;;12.74;100.00;99071.56;5005503;28;20201;-76
2023/09/22 02:58:59;;;;;;;3.70;1.60;;;;;;;12.80;100.00;99070.56;5001252;28;20228;-76
2023/09/22 03:01:25;;;;;;;1.53;1.40;;;;;;;12.76;100.00;99066.22;4983644;28;20292;-76
2023/09/22 03:03:51;;;;;;;2.50;1.70;;;;;;;12.75;100.00;99075.09;4982329;28;20538;-76
2023/09/22 03:06:19;;;;;;;2.67;1.60;;;;;;;12.67;100.00;99088.50;4982376;28;20288;-76
2023/09/22 03:08:45;;;;;;;2.23;1.60;;;;;;;12.57;100.00;99084.25;4980943;28;21022;-76
2023/09/22 03:11:12;;;;;;;3.60;1.70;;;;;;;12.59;100.00;99078.91;4981844;28;20213;-77
2023/09/22 03:13:39;;;;;;;2.93;1.50;;;;;;;12.52;100.00;99089.63;4985710;28;20221;-77
2023/09/22 03:16:06;;;;;;;3.43;1.80;;;;;;;12.45;100.00;99095.94;4987608;28;20557;-77
2023/09/22 03:18:32;;;;;;;2.57;1.70;;;;;;;12.41;100.00;99104.84;4982217;28;20236;-77
2023/09/22 03:20:59;;;;;;;1.60;1.50;;;;;;;12.45;100.00;99127.81;5000979;28;20204;-76
2023/09/22 03:23:25;;;;;;;2.20;1.70;;;;;;;12.39;100.00;99135.84;4978396;28;20227;-76
2023/09/22 03:25:52;;;;;;;2.43;1.80;;;;;;;12.41;100.00;99141.16;4977143;28;20202;-78
2023/09/22 03:28:19;;;;;;;3.70;1.40;;;;;;;12.45;100.00;99117.19;4979556;28;20202;-77
2023/09/22 03:30:45;;;;;;;2.10;1.70;;;;;;;12.45;100.00;99114.53;4988892;28;20236;-77
2023/09/22 03:33:12;;;;;;;2.37;1.80;;;;;;;12.44;100.00;99109.25;4975772;28;20223;-78
2023/09/22 03:35:38;;;;;;;2.10;1.80;;;;;;;12.49;100.00;99105.63;4981734;28;20647;-77
2023/09/22 03:38:09;;;;;;;2.10;1.90;;;;;;;12.46;100.00;99105.66;4977082;28;20209;-76
2023/09/22 03:40:41;;;;;;;5.17;1.90;;;;;;;12.43;100.00;99100.41;4977760;28;20205;-77
2023/09/22 03:43:08;;;;;;;4.03;2.00;;;;;;;12.38;100.00;99096.03;4981756;28;20279;-77
2023/09/22 03:45:35;;;;;;;2.37;2.07;;;;;;;12.36;100.00;99106.69;4982322;28;20617;-77
2023/09/22 03:48:03;;;;;;;2.37;1.93;;;;;;;12.30;100.00;99088.19;4981278;28;20205;-77
2023/09/22 03:50:30;;;;;;;2.67;1.83;;;;;;;12.31;100.00;99091.72;4984509;28;20259;-78
2023/09/22 03:52:56;;;;;;;3.07;1.90;;;;;;;12.30;100.00;99089.97;4983864;28;20675;-77
2023/09/22 03:55:23;;;;;;;2.70;1.90;;;;;;;12.32;100.00;99090.81;4987307;28;20688;-77
2023/09/22 03:57:50;;;;;;;2.87;2.00;;;;;;;12.28;100.00;99097.94;4983204;28;20224;-78
2023/09/22 04:00:18;;;;;;;3.50;2.37;;;;;;;12.29;100.00;99112.97;4976149;28;20661;-78
2023/09/22 04:02:46;;;;;;;3.00;2.10;;;;;;;12.29;100.00;99134.22;4982571;28;20311;-77
2023/09/22 04:05:13;;;;;;;2.67;2.27;;;;;;;12.29;100.00;99136.00;4980351;28;20240;-77
2023/09/22 04:07:42;;;;;;;2.67;2.13;;;;;;;12.34;100.00;99150.06;4982131;28;20239;-76
2023/09/22 04:10:10;;;;;;;3.43;2.50;;;;;;;12.44;100.00;99162.34;4984841;28;20554;-79
2023/09/22 04:12:36;;;;;;;2.83;2.23;;;;;;;12.62;100.00;99156.75;4996135;28;20761;-76
2023/09/22 04:15:04;;;;;;;4.27;2.53;;;;;;;12.80;100.00;99167.09;4997503;28;20271;-76
2023/09/22 04:17:34;;;;;;;2.47;2.00;;;;;;;12.97;100.00;99173.94;4983357;28;20256;-75
2023/09/22 04:20:01;;;;;;;2.90;2.10;;;;;;;13.11;100.00;99166.63;4981618;28;20688;-77
2023/09/22 04:22:32;;;;;;;2.43;2.07;;;;;;;13.28;100.00;99161.06;4985071;28;20221;-76
2023/09/22 04:25:08;;;;;;;3.13;2.10;;;;;;;13.39;100.00;99159.97;4985923;28;20221;-75
2023/09/22 04:27:40;;;;;;;2.67;1.77;;;;;;;13.43;100.00;99150.16;4980881;28;20200;-76
2023/09/22 04:30:08;;;;;;;3.23;2.00;;;;;;;13.56;100.00;99151.66;4978221;28;20210;-76
2023/09/22 04:32:35;;;;;;;2.67;1.80;;;;;;;13.69;100.00;99163.88;5005283;28;20244;-76
2023/09/22 04:35:02;;;;;;;2.97;1.63;;;;;;;13.78;100.00;99153.03;4998656;28;20209;-75
2023/09/22 04:37:29;;;;;;;1.67;1.57;;;;;;;13.92;100.00;99144.75;4983974;28;20662;-75
2023/09/22 04:39:55;;;;;;;2.40;1.50;;;;;;;13.99;100.00;99142.84;4984853;28;20214;-76
2023/09/22 04:42:24;;;;;;;3.13;1.63;;;;;;;14.02;100.00;99157.00;4982286;28;20224;-76
2023/09/22 04:44:51;;;;;;;2.40;1.43;;;;;;;14.04;100.00;99160.50;5001230;28;20201;-76
2023/09/22 04:47:18;;;;;;;2.33;1.70;;;;;;;14.13;100.00;99158.56;4988470;28;20672;-76
2023/09/22 04:49:45;;;;;;;2.23;1.50;;;;;;;14.14;100.00;99155.00;4988467;28;20205;-76
2023/09/22 04:52:11;;;;;;;3.80;1.93;;;;;;;14.20;100.00;99146.88;4992653;28;20240;-76
2023/09/22 04:54:37;;;;;;;3.17;1.70;;;;;;;14.22;100.00;99158.38;4979278;28;20197;-76
2023/09/22 04:57:04;;;;;;;2.17;1.60;;;;;;;14.23;100.00;99150.34;4979737;28;20284;-76
2023/09/22 04:59:30;;;;;;;2.70;1.47;;;;;;;14.24;100.00;99146.78;4993452;28;20669;-75
2023/09/22 05:01:57;;;;;;;7.03;1.80;;;;;;;14.21;100.00;99148.63;4984877;28;20222;-76
2023/09/22 05:04:23;;;;;;;2.57;1.50;;;;;;;14.22;100.00;99145.06;4975901;28;20221;-75
2023/09/22 05:06:50;;;;;;;2.10;1.70;;;;;;;14.14;100.00;99137.22;4978833;28;20206;-76
2023/09/22 05:09:17;;;;;;;2.83;1.23;;;;;;;14.11;100.00;99131.97;4979134;28;20202;-75
2023/09/22 05:11:43;;;;;;;3.37;1.83;;;;;;;14.11;100.00;99138.19;4984846;28;20197;-76
2023/09/22 05:14:10;;;;;;;2.90;1.80;;;;;;;14.11;100.00;99146.16;4971783;28;20205;-76
2023/09/22 05:16:37;;;;;;;3.33;1.83;;;;;;;14.16;100.00;99148.72;4995437;28;20211;-76
2023/09/22 05:19:04;;;;;;;3.67;1.60;;;;;;;14.18;100.00;99151.34;4981682;28;20665;-75
2023/09/22 05:21:31;;;;;;;2.40;1.43;;;;;;;14.19;100.00;99151.31;4995044;28;20494;-78
2023/09/22 05:23:57;;;;;;;2.43;1.50;;;;;;;14.25;100.00;99140.53;4973501;28;20690;-73
2023/09/22 05:26:25;;;;;;;1.53;1.40;;;;;;;14.25;100.00;99131.66;4976288;28;20765;-74
2023/09/22 05:28:51;;;;;;;1.87;1.30;;;;;;;14.21;100.00;99129.97;4984298;28;20579;-74
2023/09/22 05:31:19;;;;;;;2.73;1.60;;;;;;;14.18;100.00;99140.69;4984284;28;20288;-74
2023/09/22 05:33:46;;;;;;;2.37;1.43;;;;;;;14.16;100.00;99162.03;4979186;28;20260;-74
2023/09/22 05:36:13;;;;;;;4.67;1.70;;;;;;;14.18;100.00;99170.88;4986074;28;20201;-74
2023/09/22 05:38:39;;;;;;;2.57;1.80;;;;;;;14.19;100.00;99172.63;4980882;28;20571;-73
2023/09/22 05:41:08;;;;;;;2.67;1.70;;;;;;;14.30;100.00;99189.25;5002104;28;20209;-74
2023/09/22 05:43:35;;;;;;;2.37;1.60;;;;;;;14.33;100.00;99172.31;4974624;28;20312;-75
2023/09/22 05:46:01;;;;;;;2.17;1.60;;;;;;;14.31;100.00;99167.03;4984609;28;20213;-73
2023/09/22 05:48:28;;;;;;;1.50;1.20;;;;;;;14.29;100.00;99182.16;4992041;28;20200;-74
2023/09/22 05:50:59;;;;;;;3.10;1.50;;;;;;;14.29;100.00;99206.13;4982255;28;20256;-75
2023/09/22 05:53:27;;;;;;;2.77;1.43;;;;;;;14.28;100.00;99215.03;5008939;28;20250;-76
2023/09/22 05:56:10;;;;;;;2.33;1.50;;;;;;;14.36;100.00;99213.09;4986142;28;20216;-74
2023/09/22 05:58:38;;;;;;;2.53;1.50;;;;;;;14.36;100.00;99213.09;4990063;28;20207;-73
2023/09/22 06:01:08;;;;;;;2.53;1.40;;;;;;;14.34;100.00;99211.38;4985354;28;20684;-74
2023/09/22 06:03:40;;;;;;;3.70;1.47;;;;;;;14.35;100.00;99211.31;4987978;28;20275;-73
2023/09/22 06:06:15;;;;;;;3.57;1.70;;;;;;;14.44;100.00;99209.44;4992828;28;20660;-74
2023/09/22 06:08:44;;;;;;;2.23;1.60;;;;;;;14.47;100.00;99206.72;4994053;28;20200;-74
2023/09/22 06:11:11;;;;;;;2.47;1.40;;;;;;;14.51;100.00;99206.63;4987409;28;20201;-73
2023/09/22 06:13:38;;;;;;;2.30;1.20;;;;;;;14.57;100.00;99192.28;4980999;28;20307;-73
2023/09/22 06:16:05;;;;;;;2.23;1.47;;;;;;;14.63;100.00;99200.13;4986236;28;20673;-74
2023/09/22 06:18:32;;;;;;;1.50;1.23;;;;;;;14.72;100.00;99215.91;4995402;28;20667;-74
2023/09/22 06:21:01;;;;;;;2.47;1.30;;;;;;;14.83;100.00;99224.56;4996751;28;20211;-74
2023/09/22 06:23:27;;;;;;;3.03;1.50;;;;;;;14.96;100.00;99203.81;4985693;28;20750;-74
2023/09/22 06:26:00;;;;;;;2.97;1.70;;;;;;;14.96;100.00;99215.38;4983449;28;20209;-74
2023/09/22 06:28:27;;;;;;;2.30;1.90;;;;;;;14.99;100.00;99220.63;4986922;28;20208;-73
2023/09/22 06:30:59;;;;;;;3.00;1.70;;;;;;;15.17;100.00;99231.75;4983731;28;20233;-73
2023/09/22 06:33:27;;;;;;;2.10;1.43;;;;;;;15.18;100.00;99238.84;4993171;28;20224;-73
2023/09/22 06:35:57;;;;;;;2.53;1.60;;;;;;;15.18;100.00;99247.72;4979461;28;20300;-73
2023/09/22 06:38:24;;;;;;;2.43;1.60;;;;;;;15.17;100.00;99247.75;4984710;28;20253;-74
2023/09/22 06:40:55;;;;;;;3.67;1.50;;;;;;;15.17;100.00;99242.44;4979943;28;20201;-73
2023/09/22 06:43:24;;;;;;;2.47;1.47;;;;;;;15.11;100.00;99235.44;4989748;28;20229;-74
2023/09/22 06:45:51;;;;;;;3.63;1.60;;;;;;;15.01;100.00;99232.13;4986594;28;20276;-73
2023/09/22 06:48:22;;;;;;;4.97;1.90;;;;;;;14.95;100.00;99245.59;4993239;28;20311;-73
2023/09/22 06:50:51;;;;;;;2.50;1.60;;;;;;;14.96;100.00;99252.69;4990959;28;20248;-74
2023/09/22 06:53:18;;;;;;;4.50;1.70;;;;;;;15.05;100.00;99254.25;4988416;28;20232;-74
2023/09/22 06:55:44;;;;;;;2.90;1.40;;;;;;;15.20;100.00;99253.00;4985447;28;20670;-74
2023/09/22 06:58:11;;;;;;;4.77;1.57;;;;;;;15.28;100.00;99259.06;4983201;28;20399;-74
2023/09/22 07:00:40;;;;;;;1.87;1.50;;;;;;;15.35;100.00;99269.56;4982871;28;20299;-73
2023/09/22 07:03:08;;;;;;;5.03;1.77;;;;;;;15.39;100.00;99272.16;4984837;28;20357;-74
2023/09/22 07:05:35;;;;;;;2.17;1.40;;;;;;;15.41;100.00;99265.84;4981221;28;20233;-72
2023/09/22 07:08:03;;;;;;;2.40;1.50;;;;;;;15.41;100.00;99259.66;4991759;28;20201;-74
2023/09/22 07:10:32;;;;;;;4.57;1.43;;;;;;;15.47;100.00;99265.69;5003213;28;20215;-73
2023/09/22 07:12:58;;;;;;;2.53;1.67;;;;;;;15.50;100.00;99276.31;4991853;28;20230;-72
2023/09/22 07:15:25;;;;;;;2.40;1.77;;;;;;;15.46;100.00;99276.41;4990002;28;20212;-73
2023/09/22 07:17:51;;;;;;;2.20;1.50;;;;;;;15.53;100.00;99281.56;4985696;28;20289;-73
2023/09/22 07:20:19;;;;;;;2.57;1.53;;;;;;;15.63;100.00;99295.63;4987746;28;20247;-73
2023/09/22 07:22:47;;;;;;;2.20;1.40;;;;;;;15.78;100.00;99289.00;4980301;28;20327;-73
2023/09/22 07:25:14;;;;;;;2.83;1.50;;;;;;;15.99;100.00;99285.75;4983164;28;20226;-74
2023/09/22 07:27:43;;;;;;;2.33;1.43;;;;;;;16.16;100.00;99280.00;4993158;28;20294;-73
2023/09/22 07:30:10;;;;;;;3.47;1.40;;;;;;;16.49;100.00;99280.84;4983129;28;20550;-73
2023/09/22 07:32:40;;;;;;;3.07;1.40;;;;;;;16.88;100.00;99290.44;4984329;28;20307;-76
2023/09/22 07:35:07;;;;;;;3.80;1.50;;;;;;;17.22;100.00;99292.09;4980820;28;20658;-73
2023/09/22 07:37:33;;;;;;;2.87;1.40;;;;;;;17.40;100.00;99287.94;4980006;28;20309;-74
2023/09/22 07:40:00;;;;;;;5.30;1.20;;;;;;;17.44;100.00;99290.47;4987326;28;20236;-75
2023/09/22 07:42:31;;;;;;;2.03;1.20;;;;;;;17.44;100.00;99281.56;4980721;28;20242;-74
2023/09/22 07:44:58;;;;;;;2.70;1.30;;;;;;;17.42;100.00;99286.97;4981764;28;20226;-74
2023/09/22 07:47:25;;;;;;;3.57;1.20;;;;;;;17.38;100.00;99290.66;4976108;28;20236;-74
2023/09/22 07:49:54;;;;;;;1.73;1.30;;;;;;;17.47;100.00;99292.16;4999627;28;20815;-74
2023/09/22 07:52:22;;;;;;;3.70;1.30;;;;;;;17.36;100.00;99291.63;4987093;28;20263;-74
2023/09/22 07:54:49;;;;;;;3.20;1.20;;;;;;;17.29;100.00;99277.59;4983138;28;20202;-74
2023/09/22 07:57:16;;;;;;;2.83;1.30;;;;;;;17.37;100.00;99296.06;4978032;28;20870;-74
2023/09/22 07:59:42;;;;;;;2.13;1.03;;;;;;;17.58;100.00;99291.81;4990635;28;20639;-74
2023/09/22 08:02:08;;;;;;;2.83;1.00;;;;;;;17.74;100.00;99288.63;4977989;28;20228;-74
2023/09/22 08:04:35;;;;;;;2.67;1.00;;;;;;;17.79;100.00;99293.81;4981005;28;20255;-74
2023/09/22 08:07:03;;;;;;;1.80;1.10;;;;;;;17.87;100.00;99289.09;4978935;28;20201;-73
2023/09/22 08:09:29;;;;;;;0.93;0.90;;;;;;;17.94;100.00;99300.47;4977171;28;20280;-76
2023/09/22 08:11:56;;;;;;;2.53;0.80;;;;;;;17.91;100.00;99308.59;4985484;28;20228;-74
2023/09/22 08:14:24;;;;;;;1.93;1.03;;;;;;;17.94;100.00;99312.06;4977434;28;20666;-74
2023/09/22 08:17:10;;;;;;;1.23;0.90;;;;;;;18.03;100.00;99309.09;4977618;28;20209;-73
2023/09/22 08:19:37;;;;;;;6.43;1.17;;;;;;;18.08;100.00;99312.47;4981355;28;20767;-74
2023/09/22 08:22:04;;;;;;;4.17;1.00;;;;;;;18.26;100.00;99316.31;4980132;28;20323;-74
2023/09/22 08:24:30;;;;;;;2.60;1.10;;;;;;;18.89;100.00;99306.91;4977015;28;20709;-74
2023/09/22 08:26:59;;;;;;;1.67;1.00;;;;;;;19.60;100.00;99305.03;4989701;28;20569;-74
2023/09/22 08:29:26;;;;;;;1.50;0.80;;;;;;;19.94;100.00;99309.88;4975522;28;20243;-74
2023/09/22 08:31:54;;;;;;;2.20;1.10;;;;;;;20.13;100.00;99310.00;4978691;28;20662;-73
2023/09/22 08:34:20;;;;;;;1.83;1.00;;;;;;;20.30;100.00;99312.81;4979052;28;20525;-74
2023/09/22 08:36:47;;;;;;;4.05;1.10;;;;;;;20.39;100.00;99303.47;4979626;28;20201;-75
2023/09/22 08:39:15;;;;;;;1.65;1.10;;;;;;;20.10;99.19;99307.44;4979550;28;20205;-74
2023/09/22 08:41:42;;;;;;;1.80;1.00;;;;;;;19.67;100.00;99303.84;4982552;28;20304;-74
2023/09/22 08:44:09;;;;;;;2.15;1.20;;;;;;;19.48;100.00;99305.50;4985235;28;20217;-72
2023/09/22 08:46:36;;;;;;;2.88;1.08;;;;;;;19.29;100.00;99306.25;4995834;28;20209;-74
2023/09/22 08:49:03;;;;;;;1.02;0.93;;;;;;;19.05;100.00;99301.81;4979432;28;20260;-74
2023/09/22 08:51:31;;;;;;;4.35;1.33;;;;;;;18.80;100.00;99304.53;4980306;28;20301;-74
2023/09/22 08:53:57;;;;;;;2.03;0.95;;;;;;;18.41;100.00;99305.06;4978798;28;20516;-73
2023/09/22 08:56:24;;;;;;;2.35;1.25;;;;;;;18.20;100.00;99300.44;4984713;28;20224;-73
2023/09/22 08:58:51;;;;;;;2.20;1.10;;;;;;;18.23;100.00;99297.66;4984307;28;20292;-73
2023/09/22 09:01:17;;;;;;;2.37;1.37;;;;;;;18.24;100.00;99304.78;4979809;28;20216;-75
2023/09/22 09:03:44;;;;;;;2.60;1.27;;;;;;;18.39;100.00;99308.69;4984822;28;20704;-75
2023/09/22 09:06:17;;;;;;;2.50;0.90;;;;;;;18.44;100.00;99309.44;4989319;28;20661;-73
2023/09/22 09:09:12;;;;;;;2.20;1.10;;;;;;;18.42;100.00;99305.94;4988511;28;20204;-73
2023/09/22 09:12:01;;;;;;;3.00;1.10;;;;;;;18.37;100.00;99310.56;4974364;28;20202;-74
2023/09/22 09:14:31;;;;;;;1.50;1.07;;;;;;;18.49;100.00;99304.78;4974418;28;20713;-75
2023/09/22 09:16:58;;;;;;;3.37;1.27;;;;;;;19.07;95.85;99306.19;4983803;28;20399;-73
2023/09/22 09:19:26;;;;;;;3.22;1.85;;;;;;;19.22;88.65;99306.53;4982595;28;20306;-73
2023/09/22 09:22:08;;;;;;;2.15;1.30;;;;;;;19.28;84.78;99306.31;4991511;28;20287;-74
2023/09/22 09:24:34;;;;;;;1.23;1.13;;;;;;;18.94;87.68;99312.09;4986754;28;20600;-74
2023/09/22 09:27:14;;;;;;;2.60;1.25;;;;;;;18.71;90.49;99318.28;4991662;28;20196;-74
2023/09/22 09:29:40;;;;;;;2.13;1.40;;;;;;;18.58;94.07;99307.13;4981596;28;20765;-74
2023/09/22 09:32:08;;;;;;;2.65;1.60;;;;;;;18.67;89.03;99309.50;4987160;28;20315;-73
2023/09/22 09:34:39;;;;;;;3.22;1.35;;;;;;;18.67;88.60;99309.50;4989762;28;20569;-74
2023/09/22 09:37:13;;;;;;;3.63;1.55;;;;;;;18.82;89.75;99301.84;4992079;28;20291;-75
2023/09/22 09:39:47;;;;;;;2.13;1.58;;;;;;;18.99;86.69;99318.16;4985537;28;20205;-73
2023/09/22 09:42:18;;;;;;;1.85;1.50;;;;;;;18.97;80.01;99306.59;4979489;28;20224;-73
2023/09/22 09:44:48;;;;;;;3.75;1.70;;;;;;;18.97;82.56;99315.53;4987866;28;20225;-75
2023/09/22 09:47:21;;;;;;;2.60;1.30;;;;;;;19.06;82.26;99315.16;4995365;28;20236;-74
2023/09/22 09:49:52;;;;;;;2.92;1.48;;;;;;;19.37;82.86;99324.72;4983235;28;20200;-73
2023/09/22 09:52:24;;;;;;;2.53;1.50;;;;;;;19.54;74.40;99322.25;5010317;23;20207;-71
2023/09/22 09:55:14;;;;;;;2.75;1.40;;;;;;;19.68;75.02;99322.59;4999610;28;20637;-71
2023/09/22 09:57:45;;;;;;;3.22;1.45;;;;;;;19.93;72.31;99321.56;4999383;28;20205;-71
2023/09/22 10:00:18;;;;;;;3.47;1.30;;;;;;;20.42;69.21;99316.84;4997449;28;20211;-70
2023/09/22 10:02:48;;;;;;;3.90;1.27;;;;;;;20.81;67.45;99306.06;4993088;28;20227;-71
2023/09/22 10:05:20;;;;;;;2.65;1.10;;;;;;;20.87;66.86;99313.91;4995269;28;20366;-71
2023/09/22 10:07:56;;;;;;;1.55;1.00;;;;;;;20.84;66.78;99311.34;5001387;28;20216;-71
2023/09/22 10:10:22;;;;;;;2.60;1.00;;;;;;;20.94;65.98;99309.97;4994885;28;20382;-71
2023/09/22 10:12:49;;;;;;;3.78;1.33;;;;;;;20.89;67.08;99310.19;5011606;28;20791;-70
2023/09/22 10:15:15;;;;;;;3.00;1.25;;;;;;;20.71;68.64;99302.94;4996930;28;20668;-72
2023/09/22 10:17:49;;;;;;;1.55;0.90;;;;;;;20.68;69.23;99299.53;5010519;28;20587;-70
2023/09/22 10:20:43;;;;;;;1.17;0.88;;;;;;;21.18;68.15;99307.94;4998354;28;20203;-71
2023/09/22 10:23:25;;;;;;;3.58;0.88;;;;;;;21.51;62.47;99309.06;4996407;28;20237;-70
2023/09/22 10:26:13;;;;;;;1.90;0.90;;;;;;;21.91;59.84;99299.00;4998090;28;20212;-71
2023/09/22 10:28:40;;;;;;;2.38;0.95;;;;;;;21.98;60.60;99311.22;4998051;28;20216;-72
2023/09/22 10:31:06;;;;;;;3.10;0.98;;;;;;;22.14;59.51;99304.16;5014464;28;20201;-71
2023/09/22 10:33:33;;;;;;;1.35;0.70;;;;;;;21.82;58.51;99312.94;5000990;28;20254;-71
2023/09/22 10:36:04;;;;;;;3.17;0.90;;;;;;;22.01;56.04;99318.28;4997817;28;20691;-71
2023/09/22 10:38:53;;;;;;;2.38;0.75;;;;;;;21.75;55.81;99311.50;5010678;28;20213;-71
2023/09/22 10:41:19;;;;;;;3.15;0.70;;;;;;;21.63;56.64;99321.09;4999856;28;20204;-71
2023/09/22 10:43:58;;;;;;;2.80;1.00;;;;;;;21.19;59.54;99328.53;5004372;28;20704;-71
2023/09/22 10:46:25;;;;;;;2.20;0.70;;;;;;;21.20;60.42;99331.16;5006449;28;20677;-71
2023/09/22 10:48:52;;;;;;;7.10;0.90;;;;;;;21.13;58.82;99328.81;5006619;28;20208;-71
2023/09/22 10:51:22;;;;;;;2.60;0.85;;;;;;;21.05;59.86;99328.31;5005943;28;20299;-66
2023/09/22 10:53:59;;;;;;;2.63;0.88;;;;;;;20.91;60.12;99337.91;4997322;28;20274;-69
2023/09/22 10:56:25;;;;;;;1.17;0.90;;;;;;;20.59;61.27;99335.78;5002242;28;20219;-69
2023/09/22 10:58:53;;;;;;;3.90;0.90;;;;;;;20.44;60.19;99340.03;5000585;28;20242;-69
2023/09/22 11:01:22;;;;;;;3.10;1.20;;;;;;;20.68;61.35;99345.25;5002248;28;20200;-68
2023/09/22 11:03:53;;;;;;;2.40;0.73;;;;;;;20.83;60.52;99339.22;5014904;28;20220;-69
2023/09/22 11:06:20;;;;;;;2.92;0.80;;;;;;;20.75;60.31;99335.97;5002934;28;20204;-68
2023/09/22 11:08:51;;;;;;;2.63;0.80;;;;;;;20.54;60.13;99341.38;5000735;28;20282;-68
2023/09/22 11:11:19;;;;;;;2.25;0.98;;;;;;;20.31;61.56;99334.25;5001937;28;20268;-70
2023/09/22 11:13:52;;;;;;;2.30;1.15;;;;;;;20.36;62.67;99344.81;5000690;28;20899;-68
2023/09/22 11:16:21;;;;;;;2.08;0.70;;;;;;;20.01;64.13;99335.56;5004743;28;20204;-69
2023/09/22 11:18:51;;;;;;;3.50;1.13;;;;;;;20.07;64.50;99337.13;5003988;28;20204;-69
2023/09/22 11:21:18;;;;;;;2.35;1.02;;;;;;;20.09;64.30;99352.25;5003605;28;20270;-68
2023/09/22 11:23:45;;;;;;;2.22;0.90;;;;;;;20.10;62.99;99343.25;5004176;28;20227;-69
2023/09/22 11:26:14;;;;;;;3.90;1.13;;;;;;;20.05;63.24;99342.59;5004394;28;20231;-68
2023/09/22 11:28:48;;;;;;;2.00;1.00;;;;;;;20.31;63.47;99325.31;5002916;28;20204;-69
2023/09/22 11:31:17;;;;;;;2.40;0.80;;;;;;;20.72;58.98;99331.59;5002601;28;20588;-69